Sakura — JG5711 — position and weather

sailwx.info

Track history (hours):
 
Tides and Currents Weather Stations Pressure Air Temp Water Temp Dewpoint Dewpoint Depression Visibility Wind Speed Wind Dir Waves Ship Positions

Sakura

Last reported at 2015-Aug-04 23:33 UTC. Time now 2015-Aug-05 00:00 UTC.
Position N 35°27' E 139°40'.

Length 32 m; draft 3.6 m.

Type: Tug. MMSI: 431101178.

Date/timePositionNaut miles runAvg speedWind from/ knotsBaromVisibWave heightAir tempDewpointWater temp
2015-Aug-04 23:33N 35°27' E 139°40'0 0.0
2015-Aug-04 22:33N 35°27' E 139°40'0 0.0
2015-Aug-04 21:33N 35°27' E 139°40'0 0.0
2015-Aug-04 20:33N 35°27' E 139°40'0 0.0
2015-Aug-04 07:19N 35°27' E 139°40'1 1.7
2015-Aug-04 06:33N 35°26' E 139°41'1 1.5
2015-Aug-04 05:34N 35°27' E 139°39'0 0.2
2015-Aug-04 04:33N 35°27' E 139°40'0 0.0
2015-Aug-04 03:33N 35°27' E 139°40'0 0.0
2015-Aug-04 02:33N 35°27' E 139°40'0 0.0
2015-Aug-04 01:33N 35°27' E 139°40'7 6.6
2015-Aug-04 00:33N 35°31' E 139°46'2 2.1
2015-Aug-03 23:34N 35°29' E 139°48'4 3.6
2015-Aug-03 22:34N 35°30' E 139°43'3 2.6
2015-Aug-03 21:34N 35°27' E 139°44'4 4.0
2015-Aug-03 20:34N 35°27' E 139°40'0 0.0
2015-Aug-03 09:33N 35°27' E 139°40'0 0.0
2015-Aug-03 08:33N 35°27' E 139°40'0 0.0
2015-Aug-03 07:33N 35°27' E 139°40'0 0.0
2015-Aug-03 06:33N 35°27' E 139°40'4 3.9
2015-Aug-03 05:33N 35°30' E 139°43'2 2.3
2015-Aug-03 04:33N 35°31' E 139°46'3 3.0
2015-Aug-03 03:33N 35°28' E 139°44'4 3.6
2015-Aug-03 02:33N 35°27' E 139°40'0 0.0
2015-Aug-03 01:33N 35°27' E 139°40'0 0.0
2015-Aug-03 00:33N 35°27' E 139°40'0 0.0
2015-Aug-02 23:33N 35°27' E 139°40'0 0.1
2015-Aug-02 22:33N 35°27' E 139°40'2 1.9
2015-Aug-02 21:34N 35°26' E 139°41'3 2.7
2015-Aug-02 20:33N 35°27' E 139°39'0 0.0
2015-Aug-02 07:08N 35°27' E 139°39'0 0.0
2015-Aug-02 06:33N 35°27' E 139°39'0 0.0
2015-Aug-02 05:33N 35°27' E 139°39'0 0.0
2015-Aug-02 04:33N 35°27' E 139°39'0 0.0
2015-Aug-02 03:33N 35°27' E 139°39'0 0.0
2015-Aug-02 02:33N 35°27' E 139°39'0 0.0
2015-Aug-02 01:34N 35°27' E 139°39'0 0.0
2015-Aug-02 00:34N 35°27' E 139°39'5 5.0
2015-Aug-01 23:33N 35°29' E 139°44'5 5.0
2015-Aug-01 22:34N 35°27' E 139°39'1 0.1
2015-Aug-01 01:33N 35°28' E 139°40'2 1.7
2015-Aug-01 00:33N 35°28' E 139°42'0 0.0
2015-Jul-31 23:33N 35°28' E 139°42'0 0.3
2015-Jul-31 22:33N 35°28' E 139°42'1 1.0
2015-Jul-31 21:33N 35°27' E 139°43'2 1.8
2015-Jul-31 20:33N 35°28' E 139°41'0 0.0
2015-Jul-31 19:33N 35°28' E 139°41'0 0.0
2015-Jul-31 18:33N 35°28' E 139°41'1 1.0
2015-Jul-31 17:33N 35°27' E 139°41'1 1.2
2015-Jul-31 16:33N 35°27' E 139°42'4 3.6
2015-Jul-31 15:33N 35°29' E 139°46'2 1.9
2015-Jul-31 14:33N 35°30' E 139°44'5 5.1
2015-Jul-31 13:33N 35°27' E 139°39'0 0.0
2015-Jul-31 12:33N 35°27' E 139°39'0 0.0
2015-Jul-31 11:33N 35°27' E 139°39'0 0.0
2015-Jul-31 10:33N 35°27' E 139°39'4 3.8
2015-Jul-31 09:33N 35°26' E 139°43'1 1.0
2015-Jul-31 08:33N 35°27' E 139°42'0 0.0
2015-Jul-31 07:33N 35°27' E 139°42'2 1.6
2015-Jul-31 06:33N 35°27' E 139°40'2 1.6
2015-Jul-31 05:33N 35°27' E 139°39'0 0.0
2015-Jul-31 04:33N 35°27' E 139°39'0 0.0
2015-Jul-31 03:33N 35°27' E 139°39'0 0.0
2015-Jul-31 02:33N 35°27' E 139°39'0 0.0
2015-Jul-31 01:33N 35°27' E 139°39'2 1.5
2015-Jul-31 00:33N 35°27' E 139°40'2 2.1
2015-Jul-30 23:33N 35°25' E 139°42'1 0.8
2015-Jul-30 22:33N 35°26' E 139°42'0 0.1
2015-Jul-30 21:33N 35°26' E 139°42'2 1.8
2015-Jul-30 20:33N 35°28' E 139°42'3 0.2
2015-Jul-30 09:33N 35°27' E 139°39'2 1.6
2015-Jul-30 08:33N 35°27' E 139°41'1 1.1
2015-Jul-30 07:33N 35°26' E 139°41'1 0.8
2015-Jul-30 06:33N 35°26' E 139°42'2 2.1
2015-Jul-30 05:33N 35°27' E 139°39'1 0.7
2015-Jul-30 04:33N 35°27' E 139°39'0 0.0
2015-Jul-30 03:33N 35°27' E 139°39'0 0.0
2015-Jul-30 02:33N 35°27' E 139°39'0 0.0
2015-Jul-30 01:33N 35°27' E 139°39'3 2.9
2015-Jul-30 00:34N 35°26' E 139°42'0 0.5
2015-Jul-29 23:33N 35°26' E 139°42'0 0.5
2015-Jul-29 22:33N 35°26' E 139°42'3 3.0
2015-Jul-29 21:33N 35°27' E 139°39'0 0.0
2015-Jul-28 22:34N 35°28' E 139°39'3 3.1
2015-Jul-28 21:33N 35°27' E 139°42'3 2.6
2015-Jul-28 20:33N 35°29' E 139°44'1 1.5
2015-Jul-28 19:33N 35°30' E 139°46'0 0.5
2015-Jul-28 18:33N 35°30' E 139°47'6 6.3
2015-Jul-28 17:33N 35°27' E 139°39'0 0.0
2015-Jul-28 16:33N 35°27' E 139°39'0 0.0
2015-Jul-28 15:33N 35°27' E 139°39'0 0.0
2015-Jul-28 14:33N 35°27' E 139°39'0 0.0
2015-Jul-28 13:33N 35°27' E 139°39'0 0.0
2015-Jul-28 12:33N 35°27' E 139°39'3 2.9
2015-Jul-28 11:33N 35°27' E 139°43'3 3.5
2015-Jul-28 10:34N 35°30' E 139°46'3 2.9
2015-Jul-28 09:34N 35°27' E 139°46'5 5.1
2015-Jul-28 08:34N 35°27' E 139°40'1 1.1
2015-Jul-28 07:34N 35°27' E 139°39'0 0.0
2015-Jul-28 06:33N 35°27' E 139°39'0 0.0
2015-Jul-27 07:10N 35°27' E 139°39'0 0.0
2015-Jul-27 06:33N 35°27' E 139°39'0 0.0
2015-Jul-27 05:34N 35°27' E 139°39'2 1.5
2015-Jul-27 04:33N 35°27' E 139°40'2 1.5
2015-Jul-27 03:33N 35°27' E 139°39'0 0.0
2015-Jul-27 02:33N 35°27' E 139°39'0 0.0
2015-Jul-27 01:33N 35°27' E 139°39'0 0.0
2015-Jul-27 00:33N 35°27' E 139°39'0 0.0
2015-Jul-26 23:33N 35°27' E 139°39'1 1.2
2015-Jul-26 22:33N 35°28' E 139°39'3 3.4
2015-Jul-26 21:34N 35°26' E 139°42'3 2.9
2015-Jul-26 20:33N 35°27' E 139°39'0 0.0
2015-Jul-26 07:33N 35°27' E 139°39'0 0.0
2015-Jul-26 06:33N 35°27' E 139°39'0 0.0
2015-Jul-26 05:33N 35°27' E 139°39'0 0.0
2015-Jul-26 04:33N 35°27' E 139°39'0 0.0
2015-Jul-26 03:33N 35°27' E 139°39'0 0.0
2015-Jul-26 02:34N 35°27' E 139°39'2 2.5
2015-Jul-26 01:34N 35°28' E 139°41'2 1.8
2015-Jul-26 00:33N 35°27' E 139°42'3 3.4
2015-Jul-25 23:34N 35°24' E 139°40'  
Track history (hours):
 
Tides and Currents Weather Stations Pressure Air Temp Water Temp Dewpoint Dewpoint Depression Visibility Wind Speed Wind Dir Waves Ship Positions

Sakura

Last reported at 2015-Aug-04 23:33 UTC. Time now 2015-Aug-05 00:00 UTC.
Position N 35°27' E 139°40'.

Length 32 m; draft 3.6 m.

Type: Tug. MMSI: 431101178.

Date/timePositionNaut miles runAvg speedWind from/ knotsBaromVisibWave heightAir tempDewpointWater temp
2015-Aug-04 23:33N 35°27' E 139°40'0 0.0
2015-Aug-04 22:33N 35°27' E 139°40'0 0.0
2015-Aug-04 21:33N 35°27' E 139°40'0 0.0
2015-Aug-04 20:33N 35°27' E 139°40'0 0.0
2015-Aug-04 07:19N 35°27' E 139°40'1 1.7
2015-Aug-04 06:33N 35°26' E 139°41'1 1.5
2015-Aug-04 05:34N 35°27' E 139°39'0 0.2
2015-Aug-04 04:33N 35°27' E 139°40'0 0.0
2015-Aug-04 03:33N 35°27' E 139°40'0 0.0
2015-Aug-04 02:33N 35°27' E 139°40'0 0.0
2015-Aug-04 01:33N 35°27' E 139°40'7 6.6
2015-Aug-04 00:33N 35°31' E 139°46'2 2.1
2015-Aug-03 23:34N 35°29' E 139°48'4 3.6
2015-Aug-03 22:34N 35°30' E 139°43'3 2.6
2015-Aug-03 21:34N 35°27' E 139°44'4 4.0
2015-Aug-03 20:34N 35°27' E 139°40'0 0.0
2015-Aug-03 09:33N 35°27' E 139°40'0 0.0
2015-Aug-03 08:33N 35°27' E 139°40'0 0.0
2015-Aug-03 07:33N 35°27' E 139°40'0 0.0
2015-Aug-03 06:33N 35°27' E 139°40'4 3.9
2015-Aug-03 05:33N 35°30' E 139°43'2 2.3
2015-Aug-03 04:33N 35°31' E 139°46'3 3.0
2015-Aug-03 03:33N 35°28' E 139°44'4 3.6
2015-Aug-03 02:33N 35°27' E 139°40'0 0.0
2015-Aug-03 01:33N 35°27' E 139°40'0 0.0
2015-Aug-03 00:33N 35°27' E 139°40'0 0.0
2015-Aug-02 23:33N 35°27' E 139°40'0 0.1
2015-Aug-02 22:33N 35°27' E 139°40'2 1.9
2015-Aug-02 21:34N 35°26' E 139°41'3 2.7
2015-Aug-02 20:33N 35°27' E 139°39'0 0.0
2015-Aug-02 07:08N 35°27' E 139°39'0 0.0
2015-Aug-02 06:33N 35°27' E 139°39'0 0.0
2015-Aug-02 05:33N 35°27' E 139°39'0 0.0
2015-Aug-02 04:33N 35°27' E 139°39'0 0.0
2015-Aug-02 03:33N 35°27' E 139°39'0 0.0
2015-Aug-02 02:33N 35°27' E 139°39'0 0.0
2015-Aug-02 01:34N 35°27' E 139°39'0 0.0
2015-Aug-02 00:34N 35°27' E 139°39'5 5.0
2015-Aug-01 23:33N 35°29' E 139°44'5 5.0
2015-Aug-01 22:34N 35°27' E 139°39'1 0.1
2015-Aug-01 01:33N 35°28' E 139°40'2 1.7
2015-Aug-01 00:33N 35°28' E 139°42'0 0.0
2015-Jul-31 23:33N 35°28' E 139°42'0 0.3
2015-Jul-31 22:33N 35°28' E 139°42'1 1.0
2015-Jul-31 21:33N 35°27' E 139°43'2 1.8
2015-Jul-31 20:33N 35°28' E 139°41'0 0.0
2015-Jul-31 19:33N 35°28' E 139°41'0 0.0
2015-Jul-31 18:33N 35°28' E 139°41'1 1.0
2015-Jul-31 17:33N 35°27' E 139°41'1 1.2
2015-Jul-31 16:33N 35°27' E 139°42'4 3.6
2015-Jul-31 15:33N 35°29' E 139°46'2 1.9
2015-Jul-31 14:33N 35°30' E 139°44'5 5.1
2015-Jul-31 13:33N 35°27' E 139°39'0 0.0
2015-Jul-31 12:33N 35°27' E 139°39'0 0.0
2015-Jul-31 11:33N 35°27' E 139°39'0 0.0
2015-Jul-31 10:33N 35°27' E 139°39'4 3.8
2015-Jul-31 09:33N 35°26' E 139°43'1 1.0
2015-Jul-31 08:33N 35°27' E 139°42'0 0.0
2015-Jul-31 07:33N 35°27' E 139°42'2 1.6
2015-Jul-31 06:33N 35°27' E 139°40'2 1.6
2015-Jul-31 05:33N 35°27' E 139°39'0 0.0
2015-Jul-31 04:33N 35°27' E 139°39'0 0.0
2015-Jul-31 03:33N 35°27' E 139°39'0 0.0
2015-Jul-31 02:33N 35°27' E 139°39'0 0.0
2015-Jul-31 01:33N 35°27' E 139°39'2 1.5
2015-Jul-31 00:33N 35°27' E 139°40'2 2.1
2015-Jul-30 23:33N 35°25' E 139°42'1 0.8
2015-Jul-30 22:33N 35°26' E 139°42'0 0.1
2015-Jul-30 21:33N 35°26' E 139°42'2 1.8
2015-Jul-30 20:33N 35°28' E 139°42'3 0.2
2015-Jul-30 09:33N 35°27' E 139°39'2 1.6
2015-Jul-30 08:33N 35°27' E 139°41'1 1.1
2015-Jul-30 07:33N 35°26' E 139°41'1 0.8
2015-Jul-30 06:33N 35°26' E 139°42'2 2.1
2015-Jul-30 05:33N 35°27' E 139°39'1 0.7
2015-Jul-30 04:33N 35°27' E 139°39'0 0.0
2015-Jul-30 03:33N 35°27' E 139°39'0 0.0
2015-Jul-30 02:33N 35°27' E 139°39'0 0.0
2015-Jul-30 01:33N 35°27' E 139°39'3 2.9
2015-Jul-30 00:34N 35°26' E 139°42'0 0.5
2015-Jul-29 23:33N 35°26' E 139°42'0 0.5
2015-Jul-29 22:33N 35°26' E 139°42'3 3.0
2015-Jul-29 21:33N 35°27' E 139°39'0 0.0
2015-Jul-28 22:34N 35°28' E 139°39'3 3.1
2015-Jul-28 21:33N 35°27' E 139°42'3 2.6
2015-Jul-28 20:33N 35°29' E 139°44'1 1.5
2015-Jul-28 19:33N 35°30' E 139°46'0 0.5
2015-Jul-28 18:33N 35°30' E 139°47'6 6.3
2015-Jul-28 17:33N 35°27' E 139°39'0 0.0
2015-Jul-28 16:33N 35°27' E 139°39'0 0.0
2015-Jul-28 15:33N 35°27' E 139°39'0 0.0
2015-Jul-28 14:33N 35°27' E 139°39'0 0.0
2015-Jul-28 13:33N 35°27' E 139°39'0 0.0
2015-Jul-28 12:33N 35°27' E 139°39'3 2.9
2015-Jul-28 11:33N 35°27' E 139°43'3 3.5
2015-Jul-28 10:34N 35°30' E 139°46'3 2.9
2015-Jul-28 09:34N 35°27' E 139°46'5 5.1
2015-Jul-28 08:34N 35°27' E 139°40'1 1.1
2015-Jul-28 07:34N 35°27' E 139°39'0 0.0
2015-Jul-28 06:33N 35°27' E 139°39'0 0.0
2015-Jul-27 07:10N 35°27' E 139°39'0 0.0
2015-Jul-27 06:33N 35°27' E 139°39'0 0.0
2015-Jul-27 05:34N 35°27' E 139°39'2 1.5
2015-Jul-27 04:33N 35°27' E 139°40'2 1.5
2015-Jul-27 03:33N 35°27' E 139°39'0 0.0
2015-Jul-27 02:33N 35°27' E 139°39'0 0.0
2015-Jul-27 01:33N 35°27' E 139°39'0 0.0
2015-Jul-27 00:33N 35°27' E 139°39'0 0.0
2015-Jul-26 23:33N 35°27' E 139°39'1 1.2
2015-Jul-26 22:33N 35°28' E 139°39'3 3.4
2015-Jul-26 21:34N 35°26' E 139°42'3 2.9
2015-Jul-26 20:33N 35°27' E 139°39'0 0.0
2015-Jul-26 07:33N 35°27' E 139°39'0 0.0
2015-Jul-26 06:33N 35°27' E 139°39'0 0.0
2015-Jul-26 05:33N 35°27' E 139°39'0 0.0
2015-Jul-26 04:33N 35°27' E 139°39'0 0.0
2015-Jul-26 03:33N 35°27' E 139°39'0 0.0
2015-Jul-26 02:34N 35°27' E 139°39'2 2.5
2015-Jul-26 01:34N 35°28' E 139°41'2 1.8
2015-Jul-26 00:33N 35°27' E 139°42'3 3.4
2015-Jul-25 23:34N 35°24' E 139°40'  

Dump ship's entire track history